Terminal Aerodrome Forecast
Issued by NWS

Home | Current Version | Previous Version | Text Only | Print | Product List | Glossary On
Versions: 1 2 3 4 5 6 7 8 9 10 11 12 13 14 15 16 17 18 19
000
FTUS43 KMQT 162323
TAFIWD
TAF
KIWD 162323Z 1700/1724 25007KT P6SM SCT070
     FM170400 24010KT P6SM BKN080
     FM170800 23011G20KT P6SM SCT110
     FM171100 23014G23KT P6SM SCT200 WS020/25055KT=

USA.gov is the U.S. government's official web portal to all federal, state and local government web resources and services.